Terminal Aerodrome Forecast
Issued by NWS

Home | Current Version | Previous Version | Text Only | Print | Product List | Glossary On
Versions: 1 2 3 4 5 6 7 8 9 10 11 12 13 14 15 16 17 18 19 20 21 22 23 24 25 26
015
FTUS41 KGYX 170543
TAFMHT
TAF
KMHT 170543Z 1706/1806 VRB03KT P6SM SCT250
     FM171700 06006KT P6SM SCT070 OVC250
     FM172300 08006KT 3SM -SN BR OVC020
     FM180200 07007KT 2SM -SN BR OVC012=

USA.gov is the U.S. government's official web portal to all federal, state and local government web resources and services.